Time;durP1;ratioP1;P1;durP2;ratioP2;P2;SDS_P1;SDS_P2;PMS_P1;PMS_P2;Temp;Humidity;BMP_temperature;BMP_pressure;BME280_temperature;BME280_humidity;BME280_pressure;Samples;Min_cycle;Max_cycle;Signal;HPM_P1;HPM_P2
2023/05/31 00:00:12;;;;;;;32.22;16.77;;;;;;;15.76;nan;100539.47;5054736;28;20389;-74
2023/05/31 00:02:38;;;;;;;33.03;16.23;;;;;;;15.58;nan;100516.72;5057373;28;20029;-75
2023/05/31 00:05:04;;;;;;;33.35;15.82;;;;;;;15.81;nan;100557.28;5058723;28;20452;-76
2023/05/31 00:07:29;;;;;;;26.42;16.05;;;;;;;15.82;nan;100556.22;5063101;28;20033;-75
2023/05/31 00:09:55;;;;;;;31.83;16.60;;;;;;;15.76;nan;100538.66;5063595;28;20059;-75
2023/05/31 00:12:21;;;;;;;28.20;16.13;;;;;;;15.80;nan;100553.81;5061470;28;20151;-75
2023/05/31 00:14:46;;;;;;;27.67;16.25;;;;;;;15.71;nan;100534.13;5060073;28;20032;-74
2023/05/31 00:17:12;;;;;;;26.80;15.05;;;;;;;15.73;nan;100539.97;5059034;28;20036;-74
2023/05/31 00:19:38;;;;;;;22.55;13.77;;;;;;;15.72;nan;100543.66;5060975;28;20032;-75
2023/05/31 00:22:05;;;;;;;22.67;14.25;;;;;;;15.68;nan;100539.88;5059502;28;20038;-75
2023/05/31 00:24:31;;;;;;;22.67;12.95;;;;;;;15.58;nan;100527.34;5043427;28;20074;-75
2023/05/31 00:26:56;;;;;;;21.80;13.25;;;;;;;15.59;nan;100533.47;5061634;28;20028;-74
2023/05/31 00:29:21;;;;;;;21.85;12.98;;;;;;;15.55;nan;100530.53;5058111;28;20446;-75
2023/05/31 00:31:47;;;;;;;19.88;12.05;;;;;;;15.55;nan;100535.03;5041100;28;20789;-75
2023/05/31 00:34:12;;;;;;;21.60;12.70;;;;;;;15.51;nan;100532.91;5044603;28;20051;-74
2023/05/31 00:36:38;;;;;;;21.83;11.93;;;;;;;15.44;nan;100528.84;5058533;28;20033;-75
2023/05/31 00:39:03;;;;;;;21.38;12.25;;;;;;;15.41;nan;100522.19;5061609;28;20079;-75
2023/05/31 00:41:29;;;;;;;21.25;11.77;;;;;;;15.44;nan;100534.97;5059991;28;20028;-75
2023/05/31 00:43:55;;;;;;;22.77;11.70;;;;;;;15.34;nan;100524.25;5058873;28;20040;-75
2023/05/31 00:46:41;;;;;;;24.30;11.70;;;;;;;15.43;nan;100535.22;5058702;28;20033;-75
2023/05/31 00:49:06;;;;;;;18.55;11.82;;;;;;;15.32;nan;100527.19;5061129;28;20053;-75
2023/05/31 00:51:33;;;;;;;17.20;11.35;;;;;;;15.39;nan;100540.22;5058592;28;20028;-75
2023/05/31 00:54:00;;;;;;;15.18;10.30;;;;;;;15.36;nan;100540.72;5047896;28;20036;-74
2023/05/31 00:56:26;;;;;;;15.82;9.73;;;;;;;15.26;nan;100535.34;5059153;28;20040;-75
2023/05/31 00:58:55;;;;;;;12.45;9.77;;;;;;;15.28;nan;100542.00;5057280;28;20055;-75
2023/05/31 01:01:25;;;;;;;14.07;8.48;;;;;;;15.24;nan;100540.88;5059259;28;20028;-75
2023/05/31 01:03:51;;;;;;;17.30;10.63;;;;;;;15.20;nan;100531.81;5062176;28;20043;-75
2023/05/31 01:06:16;;;;;;;16.98;10.38;;;;;;;15.21;nan;100540.59;5060143;28;20025;-75
2023/05/31 01:08:42;;;;;;;20.90;10.50;;;;;;;14.96;nan;100504.81;5057818;28;20044;-72
2023/05/31 01:11:18;;;;;;;19.73;10.73;;;;;;;14.96;nan;100501.38;5062196;28;20530;-74
2023/05/31 01:13:46;;;;;;;23.08;12.52;;;;;;;15.16;nan;100540.56;5057372;28;20035;-75
2023/05/31 01:16:36;;;;;;;22.08;12.32;;;;;;;15.16;nan;100535.25;5048412;28;20036;-75
2023/05/31 01:19:07;;;;;;;25.30;11.93;;;;;;;15.08;nan;100524.06;5060922;28;20036;-73
2023/05/31 01:21:57;;;;;;;22.33;11.65;;;;;;;15.16;nan;100543.22;5057253;28;20107;-75
2023/05/31 01:24:31;;;;;;;20.17;11.48;;;;;;;15.13;nan;100536.53;5057731;28;20035;-75
2023/05/31 01:27:00;;;;;;;18.75;11.43;;;;;;;15.05;nan;100524.53;5049954;28;20078;-75
2023/05/31 01:29:26;;;;;;;;;;;;;;;14.94;nan;100517.56;5057935;28;20021;-73
2023/05/31 01:31:54;;;;;;;15.30;10.40;;;;;;;15.10;nan;100540.50;5059271;28;19948;-75
2023/05/31 01:34:20;;;;;;;21.70;12.38;;;;;;;15.02;nan;100527.69;5057232;28;20036;-75
2023/05/31 01:36:45;;;;;;;20.63;12.13;;;;;;;15.00;nan;100527.16;5050377;28;20025;-75
2023/05/31 01:39:11;;;;;;;19.55;11.93;;;;;;;15.07;nan;100537.56;5042807;28;20024;-76
2023/05/31 01:41:40;;;;;;;19.95;12.35;;;;;;;15.07;nan;100535.69;5060632;28;20029;-74
2023/05/31 01:44:07;;;;;;;26.08;11.90;;;;;;;15.03;nan;100539.88;5056046;28;20031;-75
2023/05/31 01:46:32;;;;;;;17.70;11.00;;;;;;;15.01;nan;100535.88;5056341;28;20025;-76
2023/05/31 01:48:59;;;;;;;20.15;11.77;;;;;;;15.06;nan;100541.25;5057748;28;20426;-75
2023/05/31 01:51:25;;;;;;;19.80;12.07;;;;;;;14.98;nan;100531.91;5056249;28;20031;-74
2023/05/31 01:53:51;;;;;;;19.13;11.90;;;;;;;15.05;nan;100531.69;5060049;28;20121;-75
2023/05/31 01:56:18;;;;;;;22.08;11.82;;;;;;;15.03;nan;100539.88;5058877;28;20045;-76
2023/05/31 01:58:47;;;;;;;19.88;11.90;;;;;;;15.05;nan;100540.44;5058483;28;20051;-76
2023/05/31 02:01:13;;;;;;;19.80;12.18;;;;;;;14.98;nan;100525.78;5045953;28;20032;-76
2023/05/31 02:03:39;;;;;;;23.10;13.05;;;;;;;15.03;nan;100534.59;5056999;28;20086;-75
2023/05/31 02:06:05;;;;;;;19.00;13.43;;;;;;;15.01;nan;100531.41;5060044;28;20036;-75
2023/05/31 02:08:30;;;;;;;22.55;12.93;;;;;;;15.06;nan;100536.75;5059911;28;20351;-76
2023/05/31 02:10:56;;;;;;;21.30;12.98;;;;;;;15.04;nan;100538.84;5057796;28;20035;-75
2023/05/31 02:13:25;;;;;;;22.42;13.07;;;;;;;15.07;nan;100548.97;5060110;28;20028;-71
2023/05/31 02:15:51;;;;;;;24.05;13.05;;;;;;;15.07;nan;100530.38;5040020;28;20021;-75
2023/05/31 02:18:16;;;;;;;22.52;11.70;;;;;;;15.04;nan;100538.84;5058704;28;20028;-75
2023/05/31 02:20:43;;;;;;;20.95;11.65;;;;;;;14.98;nan;100529.25;5057243;28;20081;-74
2023/05/31 02:23:08;;;;;;;19.13;11.60;;;;;;;14.99;nan;100543.28;5057114;28;20056;-75
2023/05/31 02:25:34;;;;;;;22.77;11.48;;;;;;;14.97;nan;100540.91;5039195;28;20053;-75
2023/05/31 02:27:59;;;;;;;22.50;11.90;;;;;;;15.01;nan;100555.28;5047252;28;20525;-75
2023/05/31 02:30:27;;;;;;;20.65;11.77;;;;;;;15.01;nan;100544.66;5058558;28;20048;-74
2023/05/31 02:32:53;;;;;;;24.45;12.35;;;;;;;15.06;nan;100557.16;5058548;28;20031;-74
2023/05/31 02:35:19;;;;;;;17.00;11.52;;;;;;;15.03;nan;100558.47;5059941;28;20020;-76
2023/05/31 02:37:46;;;;;;;17.63;10.75;;;;;;;15.06;nan;100557.97;5059388;28;20039;-74
2023/05/31 02:40:13;;;;;;;16.33;10.70;;;;;;;15.07;nan;100564.06;5058312;28;20048;-74
2023/05/31 02:42:40;;;;;;;20.65;11.25;;;;;;;15.04;nan;100562.72;5039897;28;20040;-74
2023/05/31 02:45:06;;;;;;;22.95;12.05;;;;;;;14.93;nan;100542.44;5056887;28;20048;-75
2023/05/31 02:47:32;;;;;;;27.17;11.80;;;;;;;14.92;nan;100546.16;5056989;28;20458;-75
2023/05/31 02:49:58;;;;;;;23.20;12.93;;;;;;;15.04;nan;100561.94;5055964;28;20036;-74
2023/05/31 02:52:24;;;;;;;18.77;11.70;;;;;;;14.99;nan;100556.56;5037101;28;20063;-76
2023/05/31 02:54:50;;;;;;;25.63;11.70;;;;;;;14.92;nan;100534.75;5041435;28;20646;-75
2023/05/31 02:57:15;;;;;;;18.75;11.77;;;;;;;15.04;nan;100554.78;5056860;28;20048;-74
2023/05/31 02:59:43;;;;;;;16.35;11.65;;;;;;;14.98;nan;100542.50;5056732;28;20021;-75
2023/05/31 03:02:08;;;;;;;22.15;11.63;;;;;;;14.92;nan;100540.88;5044789;28;20040;-76
2023/05/31 03:04:35;;;;;;;20.27;11.73;;;;;;;15.03;nan;100550.50;5056434;28;20425;-76
2023/05/31 03:07:01;;;;;;;19.17;12.02;;;;;;;14.98;nan;100549.66;5057337;28;20025;-75
2023/05/31 03:09:26;;;;;;;19.65;11.77;;;;;;;14.95;nan;100544.88;5057423;28;20077;-76
2023/05/31 03:11:51;;;;;;;22.20;11.15;;;;;;;15.03;nan;100557.66;5043796;28;20028;-71
2023/05/31 03:14:17;;;;;;;18.73;11.65;;;;;;;15.03;nan;100566.41;5056472;28;20063;-72
2023/05/31 03:16:43;;;;;;;23.05;11.23;;;;;;;15.01;nan;100560.59;5056852;28;20623;-72
2023/05/31 03:19:08;;;;;;;18.88;11.10;;;;;;;15.04;nan;100569.88;5056304;28;20029;-72
2023/05/31 03:21:34;;;;;;;15.40;10.20;;;;;;;15.03;nan;100565.63;5057486;28;20493;-72
2023/05/31 03:23:59;;;;;;;18.02;9.98;;;;;;;15.01;nan;100560.59;5057469;28;20035;-75
2023/05/31 03:26:25;;;;;;;21.35;10.05;;;;;;;15.01;nan;100559.75;5058959;28;20904;-74
2023/05/31 03:28:51;;;;;;;15.52;9.23;;;;;;;14.90;nan;100545.63;5042010;28;20047;-75
2023/05/31 03:31:18;;;;;;;15.30;9.02;;;;;;;14.97;nan;100570.06;5040611;28;20035;-75
2023/05/31 03:33:44;;;;;;;21.50;9.20;;;;;;;15.00;nan;100580.19;5040159;28;20085;-76
2023/05/31 03:36:09;;;;;;;15.30;8.23;;;;;;;14.90;nan;100566.81;5056257;28;20028;-76
2023/05/31 03:38:35;;;;;;;24.38;9.15;;;;;;;14.93;nan;100582.22;5048658;28;20156;-75
2023/05/31 03:41:00;;;;;;;15.65;8.63;;;;;;;14.92;nan;100580.63;5061673;28;20059;-74
2023/05/31 03:43:26;;;;;;;17.75;8.35;;;;;;;14.94;nan;100593.63;5050670;28;20303;-75
2023/05/31 03:45:51;;;;;;;16.33;8.93;;;;;;;14.96;nan;100594.19;5064438;28;20044;-70
2023/05/31 03:48:16;;;;;;;15.73;8.70;;;;;;;14.82;nan;100578.69;5045470;28;20074;-70
2023/05/31 03:50:43;;;;;;;17.50;9.38;;;;;;;14.77;nan;100575.97;5063624;28;20036;-70
2023/05/31 03:53:08;;;;;;;19.02;9.38;;;;;;;14.85;nan;100580.03;5066085;28;20069;-70
2023/05/31 03:55:34;;;;;;;18.75;9.85;;;;;;;14.94;nan;100586.50;5062348;28;20052;-76
2023/05/31 03:57:59;;;;;;;14.88;9.73;;;;;;;14.93;nan;100584.09;5062932;28;20040;-75
2023/05/31 04:00:25;;;;;;;16.13;10.07;;;;;;;15.02;nan;100593.19;5064531;28;20050;-76
2023/05/31 04:02:51;;;;;;;24.10;9.93;;;;;;;14.97;nan;100578.03;5064248;28;20029;-71
2023/05/31 04:05:17;;;;;;;20.80;9.85;;;;;;;15.06;nan;100592.44;5062230;28;20086;-71
2023/05/31 04:07:42;;;;;;;17.05;9.23;;;;;;;15.05;nan;100593.50;5047611;28;20020;-71
2023/05/31 04:10:08;;;;;;;18.30;10.20;;;;;;;15.06;nan;100595.09;5064691;28;20398;-70
2023/05/31 04:12:34;;;;;;;18.92;8.98;;;;;;;15.13;nan;100607.34;5063653;28;20729;-74
2023/05/31 04:15:00;;;;;;;17.45;9.52;;;;;;;15.01;nan;100605.66;5046850;28;20745;-74
2023/05/31 04:17:25;;;;;;;17.17;9.10;;;;;;;14.95;nan;100593.38;5064295;28;20043;-74
2023/05/31 04:19:51;;;;;;;17.45;9.93;;;;;;;15.00;nan;100612.00;5066763;28;20497;-75
2023/05/31 04:22:16;;;;;;;20.17;10.02;;;;;;;15.08;nan;100624.00;5047292;28;20123;-75
2023/05/31 04:24:42;;;;;;;19.08;11.00;;;;;;;15.04;nan;100617.63;5053117;28;20028;-75
2023/05/31 04:27:07;;;;;;;24.02;10.23;;;;;;;15.04;nan;100612.31;5066532;28;20028;-74
2023/05/31 04:29:33;;;;;;;19.05;10.65;;;;;;;15.10;nan;100635.97;5062943;28;20029;-75
2023/05/31 04:31:59;;;;;;;20.02;10.90;;;;;;;14.97;nan;100614.38;5063164;28;20024;-74
2023/05/31 04:34:26;;;;;;;22.40;11.73;;;;;;;15.05;nan;100627.16;5061397;28;20033;-75
2023/05/31 04:36:52;;;;;;;28.25;11.43;;;;;;;15.05;nan;100625.31;5063699;28;20020;-74
2023/05/31 04:39:21;;;;;;;19.58;12.05;;;;;;;15.15;nan;100634.44;5064795;28;20432;-70
2023/05/31 04:41:47;;;;;;;24.15;11.93;;;;;;;15.12;nan;100632.28;5068121;28;20517;-74
2023/05/31 04:44:13;;;;;;;27.40;12.38;;;;;;;15.11;nan;100628.84;5062272;28;20075;-75
2023/05/31 04:46:41;;;;;;;21.58;13.15;;;;;;;15.18;nan;100639.22;5060675;28;20028;-71
2023/05/31 04:49:07;;;;;;;23.75;12.45;;;;;;;15.18;nan;100641.88;5042639;28;20530;-70
2023/05/31 04:51:32;;;;;;;23.65;12.57;;;;;;;15.22;nan;100645.66;5055808;28;20070;-71
2023/05/31 04:53:58;;;;;;;24.02;14.23;;;;;;;15.15;nan;100629.94;5047249;28;20028;-70
2023/05/31 04:56:24;;;;;;;22.73;13.70;;;;;;;15.21;nan;100638.75;5044202;28;20562;-71
2023/05/31 04:58:50;;;;;;;25.20;15.07;;;;;;;15.21;nan;100639.56;5057223;28;20040;-69
2023/05/31 05:01:15;;;;;;;24.20;14.25;;;;;;;15.26;nan;100647.56;5059884;28;20025;-76
2023/05/31 05:03:41;;;;;;;25.35;14.95;;;;;;;15.34;nan;100664.88;5061189;28;20055;-74
2023/05/31 05:06:13;;;;;;;28.50;15.85;;;;;;;;;;5062422;28;20024;-76
2023/05/31 05:08:39;;;;;;;32.70;17.05;;;;;;;;;;5061519;28;20033;-76
2023/05/31 05:11:05;;;;;;;27.10;16.73;;;;;;;;;;5057826;28;20388;-71
2023/05/31 05:13:30;;;;;;;30.38;15.45;;;;;;;;;;5063803;28;20060;-74
2023/05/31 05:15:56;;;;;;;32.67;15.70;;;;;;;;;;5057278;28;20080;-74
2023/05/31 05:18:21;;;;;;;26.92;15.98;;;;;;;;;;5061947;28;20420;-74
2023/05/31 05:20:46;;;;;;;29.98;15.98;;;;;;;;;;5044210;28;20466;-75
2023/05/31 05:23:11;;;;;;;30.80;16.73;;;;;;;;;;5059231;28;20490;-77
2023/05/31 05:25:37;;;;;;;30.47;17.03;;;;;;;;;;5058346;28;20290;-72
2023/05/31 05:28:02;;;;;;;33.57;18.10;;;;;;;;;;5056757;28;20619;-72
2023/05/31 05:30:28;;;;;;;31.95;17.52;;;;;;;;;;5047207;28;20285;-72
2023/05/31 05:32:53;;;;;;;32.58;18.13;;;;;;;;;;5060001;28;20039;-73
2023/05/31 05:35:19;;;;;;;31.38;17.48;;;;;;;15.68;nan;100662.00;5060924;28;20067;-75
2023/05/31 05:37:44;;;;;;;36.30;18.58;;;;;;;15.80;nan;100680.47;5044603;28;20484;-76
2023/05/31 05:40:10;;;;;;;33.25;18.50;;;;;;;15.57;nan;100637.25;5050819;28;20024;-75
2023/05/31 05:42:38;;;;;;;35.95;17.88;;;;;;;15.73;nan;100654.94;5059956;28;20052;-75
2023/05/31 05:45:06;;;;;;;31.67;18.27;;;;;;;15.89;nan;100670.97;5046469;28;20020;-75
2023/05/31 05:47:32;;;;;;;32.78;18.88;;;;;;;15.86;nan;100671.50;5055300;28;20028;-75
2023/05/31 05:49:57;;;;;;;32.83;18.13;;;;;;;15.99;nan;100686.19;5057653;28;20043;-75
2023/05/31 05:52:23;;;;;;;30.00;17.75;;;;;;;16.01;nan;100684.09;5059407;28;20033;-75
2023/05/31 05:54:48;;;;;;;27.88;16.35;;;;;;;15.97;nan;100673.19;5059927;28;20027;-75
2023/05/31 05:57:14;;;;;;;28.73;16.65;;;;;;;16.04;nan;100688.91;5055592;28;20516;-75
2023/05/31 05:59:41;;;;;;;22.02;15.43;;;;;;;16.03;nan;100671.38;5038052;28;20507;-74
2023/05/31 06:02:06;;;;;;;24.90;15.70;;;;;;;16.03;nan;100674.03;5056610;28;20112;-74
2023/05/31 06:04:31;;;;;;;26.38;16.20;;;;;;;16.12;nan;100685.78;5054689;28;20546;-73
2023/05/31 06:06:57;;;;;;;22.17;15.05;;;;;;;16.09;nan;100684.44;5057417;28;20032;-75
2023/05/31 06:09:22;;;;;;;24.10;15.80;;;;;;;16.13;nan;100690.81;5057373;28;20043;-76
2023/05/31 06:11:48;;;;;;;26.23;16.25;;;;;;;16.16;nan;100697.47;5059881;28;20047;-75
2023/05/31 06:14:13;;;;;;;23.58;15.80;;;;;;;16.16;nan;100693.00;5038787;28;20463;-74
2023/05/31 06:16:38;;;;;;;26.05;16.55;;;;;;;16.14;nan;100695.09;5056234;28;20025;-70
2023/05/31 06:19:04;;;;;;;25.83;16.27;;;;;;;;;;5061285;28;20497;-69
2023/05/31 06:21:29;;;;;;;25.83;16.47;;;;;;;;;;5056640;28;20032;-71
2023/05/31 06:23:54;;;;;;;24.25;16.50;;;;;;;;;;5058006;28;20028;-70
2023/05/31 06:26:20;;;;;;;25.60;17.35;;;;;;;;;;5060081;28;20128;-72
2023/05/31 06:28:45;;;;;;;24.27;16.95;;;;;;;;;;5057405;28;20018;-72
2023/05/31 06:31:10;;;;;;;28.37;16.67;;;;;;;;;;5057424;28;20041;-76
2023/05/31 06:33:36;;;;;;;25.10;17.08;;;;;;;;;;5059950;28;20301;-76
2023/05/31 06:36:01;;;;;;;25.73;17.13;;;;;;;;;;5056041;28;20052;-76
2023/05/31 06:38:27;;;;;;;27.83;17.67;;;;;;;;;;5058463;28;20028;-70
2023/05/31 06:40:52;;;;;;;28.27;17.63;;;;;;;;;;5057678;28;20079;-73
2023/05/31 06:43:17;;;;;;;26.83;17.57;;;;;;;;;;5057076;28;20024;-74
2023/05/31 06:45:43;;;;;;;27.90;17.00;;;;;;;;;;5056349;28;20756;-76
2023/05/31 06:48:11;;;;;;;28.20;18.75;;;;;;;16.44;nan;100714.97;5058359;28;20033;-75
2023/05/31 06:50:36;;;;;;;29.50;18.97;;;;;;;;;;5041535;28;20029;-76
2023/05/31 06:53:02;;;;;;;30.75;19.00;;;;;;;;;;5058632;28;20025;-70
2023/05/31 06:55:27;;;;;;;27.58;18.05;;;;;;;;;;5053646;28;20024;-72
2023/05/31 06:57:53;;;;;;;28.20;17.77;;;;;;;;;;5054163;28;20035;-76
2023/05/31 07:00:19;;;;;;;28.00;18.00;;;;;;;;;;5058084;28;20039;-74
2023/05/31 07:02:44;;;;;;;30.50;18.15;;;;;;;;;;5057187;28;20046;-76
2023/05/31 07:05:10;;;;;;;31.67;18.83;;;;;;;;;;5057335;28;20475;-76
2023/05/31 07:07:35;;;;;;;30.55;20.48;;;;;;;;;;5045243;28;20281;-76
2023/05/31 07:10:01;;;;;;;33.37;20.27;;;;;;;;;;5055873;28;20039;-77
2023/05/31 07:12:26;;;;;;;28.65;19.10;;;;;;;;;;5057497;28;20285;-76
2023/05/31 07:14:51;;;;;;;29.88;19.40;;;;;;;;;;5045538;28;20687;-76
2023/05/31 07:17:17;;;;;;;36.13;19.27;;;;;;;;;;5057656;28;20025;-76
2023/05/31 07:19:45;;;;;;;29.75;19.42;;;;;;;;;;5054644;28;20043;-75
2023/05/31 07:22:12;;;;;;;27.48;19.08;;;;;;;;;;5054922;28;20039;-76
2023/05/31 07:24:37;;;;;;;32.88;18.95;;;;;;;;;;5055910;28;20086;-76
2023/05/31 07:27:02;;;;;;;25.90;17.67;;;;;;;;;;5054184;28;20024;-76
2023/05/31 07:29:28;;;;;;;26.23;17.20;;;;;;;;;;5055983;28;20482;-76
2023/05/31 07:31:53;;;;;;;29.30;17.35;;;;;;;;;;5037787;28;20029;-76
2023/05/31 07:34:18;;;;;;;32.47;18.33;;;;;;;;;;5056769;28;20033;-76
2023/05/31 07:36:44;;;;;;;25.07;17.50;;;;;;;;;;5055651;28;20116;-76
2023/05/31 07:39:10;;;;;;;27.50;15.95;;;;;;;;;;5044952;28;20287;-76
2023/05/31 07:41:35;;;;;;;24.95;16.45;;;;;;;;;;5057690;28;20667;-76
2023/05/31 07:44:02;;;;;;;27.08;17.17;;;;;;;;;;5042838;28;20028;-75
2023/05/31 07:46:28;;;;;;;23.20;16.25;;;;;;;;;;5056011;28;20044;-73
2023/05/31 07:48:53;;;;;;;22.02;16.02;;;;;;;;;;5054625;28;20025;-73
2023/05/31 07:51:19;;;;;;;21.90;15.70;;;;;;;;;;5041882;28;20025;-76
2023/05/31 07:53:45;;;;;;;27.27;16.80;;;;;;;;;;5056050;28;20079;-74
2023/05/31 07:56:10;;;;;;;21.90;15.50;;;;;;;;;;5055167;28;20073;-74
2023/05/31 07:58:36;;;;;;;24.60;15.70;;;;;;;;;;5053425;28;20056;-74
2023/05/31 08:01:02;;;;;;;25.00;14.98;;;;;;;;;;5056434;28;20025;-73
2023/05/31 08:03:27;;;;;;;23.25;14.98;;;;;;;;;;5056057;28;20048;-73
2023/05/31 08:05:52;;;;;;;28.70;16.27;;;;;;;;;;5037598;28;20075;-74
2023/05/31 08:08:18;;;;;;;24.63;15.20;;;;;;;;;;5041889;28;20273;-74
2023/05/31 08:10:43;;;;;;;21.63;14.77;;;;;;;17.76;nan;100705.91;5055907;28;20029;-74
2023/05/31 08:13:09;;;;;;;28.05;15.65;;;;;;;17.73;nan;100751.72;5054981;28;20868;-74
2023/05/31 08:15:35;;;;;;;28.83;15.57;;;;;;;;;;5042495;28;20032;-75
2023/05/31 08:18:00;;;;;;;24.67;15.63;;;;;;;;;;5059083;28;20028;-73
2023/05/31 08:20:26;;;;;;;22.15;15.25;;;;;;;;;;5057297;28;20032;-76
2023/05/31 08:22:52;;;;;;;25.85;15.43;;;;;;;;;;5045029;28;20375;-75
2023/05/31 08:25:18;;;;;;;27.55;15.35;;;;;;;;;;5058569;28;20120;-76
2023/05/31 08:27:44;;;;;;;27.15;15.27;;;;;;;;;;5059381;28;20636;-76
2023/05/31 08:30:09;;;;;;;24.52;14.15;;;;;;;;;;5059854;28;20482;-77
2023/05/31 08:32:35;;;;;;;24.30;14.23;;;;;;;;;;5061203;28;20639;-76
2023/05/31 08:35:00;;;;;;;22.27;13.77;;;;;;;;;;5061880;28;20660;-76
2023/05/31 08:37:25;;;;;;;22.87;13.90;;;;;;;;;;5057603;28;20021;-75
2023/05/31 08:39:51;;;;;;;28.88;13.35;;;;;;;;;;5047614;28;20280;-76
2023/05/31 08:42:24;;;;;;;21.40;14.50;;;;;;;;;;5059498;28;20378;-77
2023/05/31 08:44:50;;;;;;;21.17;13.57;;;;;;;;;;5048147;28;20277;-75
2023/05/31 08:47:22;;;;;;;20.38;12.50;;;;;;;;;;5058061;28;20036;-76
2023/05/31 08:49:48;;;;;;;18.40;12.38;;;;;;;;;;5059912;28;20037;-76
2023/05/31 08:52:14;;;;;;;20.58;12.88;;;;;;;;;;5049752;28;20115;-75
2023/05/31 08:54:42;;;;;;;19.45;12.57;;;;;;;;;;5059565;28;20025;-76
2023/05/31 08:57:09;;;;;;;21.27;12.10;;;;;;;18.61;nan;100739.22;5056423;28;20431;-76
2023/05/31 08:59:36;;;;;;;17.15;11.85;;;;;;;18.67;nan;100700.78;5057103;28;20425;-76
2023/05/31 09:02:03;;;;;;;15.50;11.43;;;;;;;;;;5061056;28;20100;-76
2023/05/31 09:04:28;;;;;;;21.52;12.70;;;;;;;18.76;nan;100706.38;5049515;28;20452;-75
2023/05/31 09:06:53;;;;;;;18.45;11.88;;;;;;;;;;5061226;28;20119;-75
2023/05/31 09:09:19;;;;;;;21.93;12.07;;;;;;;;;;5047438;28;20090;-76
2023/05/31 09:11:44;;;;;;;16.85;12.00;;;;;;;;;;5062085;28;20119;-76
2023/05/31 09:14:10;;;;;;;17.45;11.85;;;;;;;19.07;nan;100691.84;5049349;28;20577;-76
2023/05/31 09:16:35;;;;;;;18.52;12.77;;;;;;;19.14;nan;100704.91;5062127;28;20025;-75
2023/05/31 09:19:03;;;;;;;16.27;11.65;;;;;;;19.22;nan;100709.66;5064051;28;20403;-76
2023/05/31 09:21:29;;;;;;;21.15;12.32;;;;;;;19.28;nan;100700.56;5059155;28;20032;-75
2023/05/31 09:23:59;;;;;;;20.15;13.05;;;;;;;19.29;nan;100690.66;5059533;28;20543;-76
2023/05/31 09:26:25;;;;;;;20.98;12.48;;;;;;;;;;5041949;28;20632;-76
2023/05/31 09:28:51;;;;;;;23.67;13.30;;;;;;;19.31;nan;100708.00;5060152;28;20040;-76
2023/05/31 09:31:18;;;;;;;19.77;12.98;;;;;;;19.29;nan;100702.16;5057953;28;20848;-76
2023/05/31 09:33:50;;;;;;;21.88;13.60;;;;;;;19.33;nan;100767.28;5060517;28;20024;-76
2023/05/31 09:36:27;;;;;;;19.70;12.85;;;;;;;19.42;nan;100682.06;5057481;28;20035;-75
2023/05/31 09:39:04;;;;;;;19.35;14.38;;;;;;;19.46;nan;100703.66;5061959;28;20055;-76
2023/05/31 09:41:31;;;;;;;22.10;13.00;;;;;;;19.55;nan;100710.81;5059025;28;20067;-74
2023/05/31 09:43:57;;;;;;;16.88;12.32;;;;;;;19.63;nan;100688.03;5057153;28;20903;-73
2023/05/31 09:46:24;;;;;;;20.88;12.90;;;;;;;19.76;nan;100713.38;5061454;28;20016;-74
2023/05/31 09:49:01;;;;;;;21.08;12.90;;;;;;;19.86;nan;100715.19;5058860;28;20028;-77
2023/05/31 09:51:27;;;;;;;16.45;13.05;;;;;;;19.91;nan;100819.38;5049813;28;20085;-75
2023/05/31 09:53:55;;;;;;;16.45;12.25;;;;;;;;;;5060276;28;20028;-75
2023/05/31 09:56:22;;;;;;;17.20;12.32;;;;;;;20.18;nan;100704.75;5058366;28;20105;-75
2023/05/31 09:58:49;;;;;;;18.15;11.95;;;;;;;20.19;nan;100746.44;5060037;28;20024;-76
2023/05/31 10:01:16;;;;;;;17.75;11.30;;;;;;;20.30;nan;100714.25;5063561;28;20136;-75
2023/05/31 10:03:42;;;;;;;16.77;11.98;;;;;;;20.35;nan;100698.97;5055176;28;20066;-74
2023/05/31 10:06:08;;;;;;;17.20;11.55;;;;;;;20.44;nan;100691.09;5056986;28;20088;-75
2023/05/31 10:08:34;;;;;;;19.25;12.27;;;;;;;20.57;nan;100711.88;5062182;28;20035;-75
2023/05/31 10:11:01;;;;;;;18.25;11.48;;;;;;;20.74;nan;100724.81;5057592;28;20035;-74
2023/05/31 10:13:31;;;;;;;16.50;11.32;;;;;;;20.95;nan;100701.28;5058790;28;20089;-74
2023/05/31 10:16:07;;;;;;;18.48;11.30;;;;;;;20.99;nan;100669.34;5059258;28;20082;-74
2023/05/31 10:18:36;;;;;;;14.30;10.10;;;;;;;;;;5059899;28;20047;-75
2023/05/31 10:21:11;;;;;;;14.25;10.82;;;;;;;21.25;nan;100688.56;5055692;28;20499;-75
2023/05/31 10:23:55;;;;;;;17.33;10.90;;;;;;;21.31;nan;100674.03;5055932;28;20501;-75
2023/05/31 10:26:22;;;;;;;15.70;11.02;;;;;;;21.45;nan;100649.97;5056212;28;20031;-75
2023/05/31 10:29:11;;;;;;;14.35;10.55;;;;;;;21.54;nan;100676.94;5058868;28;20027;-76
2023/05/31 10:31:42;;;;;;;15.83;10.87;;;;;;;;;;5056288;28;20048;-73
2023/05/31 10:34:18;;;;;;;14.85;10.45;;;;;;;21.69;nan;100668.63;5060655;28;20267;-74
2023/05/31 10:36:45;;;;;;;17.50;10.68;;;;;;;21.80;nan;100659.34;5047147;28;20498;-73
2023/05/31 10:39:22;;;;;;;16.80;10.50;;;;;;;21.88;nan;100664.06;5058541;28;20032;-74
2023/05/31 10:41:53;;;;;;;15.60;10.25;;;;;;;21.91;nan;100654.63;5058305;28;20506;-74
2023/05/31 10:44:22;;;;;;;14.30;9.77;;;;;;;;;;5055559;28;20044;-74
2023/05/31 10:46:50;;;;;;;15.55;11.27;;;;;;;;;;5038547;28;20120;-74
2023/05/31 10:49:18;;;;;;;16.07;11.40;;;;;;;;;;5058735;28;20041;-75
2023/05/31 10:51:46;;;;;;;11.35;9.18;;;;;;;22.24;nan;100676.03;5049067;28;20273;-74
2023/05/31 10:54:25;;;;;;;12.18;8.48;;;;;;;22.38;nan;100627.78;5059473;28;20064;-74
2023/05/31 10:56:58;;;;;;;12.70;8.68;;;;;;;22.45;nan;100626.28;5057583;28;20601;-75
2023/05/31 10:59:25;;;;;;;19.13;10.30;;;;;;;22.52;nan;100645.44;5057312;28;20081;-74
2023/05/31 11:01:50;;;;;;;12.80;9.20;;;;;;;22.54;nan;100634.44;5059177;28;20261;-75
2023/05/31 11:04:20;;;;;;;12.05;9.60;;;;;;;;;;5043688;28;20429;-74
2023/05/31 11:06:47;;;;;;;14.38;9.35;;;;;;;22.60;nan;100684.25;5058479;28;20390;-73
2023/05/31 11:09:17;;;;;;;14.15;9.32;;;;;;;22.68;nan;100677.38;5058119;28;20410;-74
2023/05/31 11:11:46;;;;;;;11.80;9.13;;;;;;;22.79;nan;100578.59;5055777;28;20039;-74
2023/05/31 11:14:26;;;;;;;13.02;8.80;;;;;;;22.86;nan;100651.47;5037820;28;20134;-74
2023/05/31 11:16:53;;;;;;;13.27;9.02;;;;;;;22.94;nan;100654.25;5055919;28;20722;-74
2023/05/31 11:19:20;;;;;;;11.82;9.43;;;;;;;23.00;nan;100646.13;5044809;28;20462;-75
2023/05/31 11:21:54;;;;;;;13.20;9.18;;;;;;;23.08;nan;100654.28;5055505;28;20032;-74
2023/05/31 11:24:38;;;;;;;16.05;9.45;;;;;;;23.17;nan;100635.53;5039134;28;20423;-74
2023/05/31 11:27:11;;;;;;;13.05;9.02;;;;;;;23.14;nan;100633.44;5060952;28;20047;-74
2023/05/31 11:29:52;;;;;;;13.50;10.25;;;;;;;23.21;nan;100638.41;5060015;28;20020;-75
2023/05/31 11:32:18;;;;;;;16.60;9.75;;;;;;;23.28;nan;100636.09;5057689;28;20025;-75
2023/05/31 11:34:57;;;;;;;16.02;10.18;;;;;;;23.29;nan;100629.59;5054704;28;20032;-75
2023/05/31 11:37:32;;;;;;;15.32;9.43;;;;;;;23.30;nan;100633.91;5054684;28;20056;-75
2023/05/31 11:40:10;;;;;;;14.82;9.20;;;;;;;23.37;nan;100623.53;5056237;28;20111;-75
2023/05/31 11:42:40;;;;;;;11.10;8.90;;;;;;;23.39;nan;100605.19;5055166;28;20149;-73
2023/05/31 11:45:07;;;;;;;11.52;8.60;;;;;;;23.48;nan;100688.56;5056139;28;20029;-75
2023/05/31 11:47:55;;;;;;;13.65;8.63;;;;;;;23.47;nan;100634.03;5057349;28;20540;-74
2023/05/31 11:50:20;;;;;;;15.15;8.70;;;;;;;23.51;nan;100642.25;5032400;28;20032;-74
2023/05/31 11:52:46;;;;;;;13.57;8.80;;;;;;;23.57;nan;100646.41;5057425;28;20033;-73
2023/05/31 11:55:16;;;;;;;11.57;8.10;;;;;;;23.61;nan;100633.16;5056095;28;20053;-72
2023/05/31 11:57:51;;;;;;;13.13;8.77;;;;;;;23.69;nan;100635.09;5056487;28;20024;-73
2023/05/31 12:00:20;;;;;;;16.67;8.65;;;;;;;23.73;nan;100603.81;5060878;28;20047;-72
2023/05/31 12:02:52;;;;;;;14.30;8.63;;;;;;;23.77;nan;100615.56;5059187;28;20052;-74
2023/05/31 12:05:18;;;;;;;14.02;8.10;;;;;;;23.78;nan;100580.31;5057920;28;20036;-73
2023/05/31 12:07:44;;;;;;;11.73;9.00;;;;;;;23.79;nan;100613.38;5060622;28;20032;-75